METAR AND TAF INFORMATION
METAR FOR UTTT
ADDS - METARS form results

(0412 UTC 26 August 2019)
Data provider http://aviationweather.gov/metar/data/
 
METAR text: UTTT 260400Z 17004KT 140V210 CAVOK 27/09 Q1011 R08R/CLRD70 NOSIG
Conditions at: UTTT (TASKENT/YUZNI , UZ) observed 0400 UTC 26 August 2019
Temperature: 27.0°C (81°F)
Dewpoint: 9.0°C (48°F) [RH = 32%]
Pressure (altimeter): 29.85 inches Hg (1011.0 mb)
Winds: from the S (170 degrees) at 5 MPH (4 knots; 2.1 m/s)
Visibility: 6 or more miles (10+ km)
Ceiling: ceiling and visibility are OK
Clouds: unknown
Weather: no significant weather observed at this time

METAR text: UTTT 260330Z 07006KT CAVOK 26/08 Q1011 R08R/CLRD70 NOSIG
Conditions at: UTTT (TASKENT/YUZNI , UZ) observed 0330 UTC 26 August 2019
Temperature: 26.0°C (79°F)
Dewpoint: 8.0°C (46°F) [RH = 32%]
Pressure (altimeter): 29.85 inches Hg (1011.0 mb)
Winds: from the ENE (70 degrees) at 7 MPH (6 knots; 3.1 m/s)
Visibility: 6 or more miles (10+ km)
Ceiling: ceiling and visibility are OK
Clouds: unknown
Weather: no significant weather observed at this time

Forecast for: UTTT (TASKENT/YUZNI , UZ)
Text: TAF UTTT 252300Z 2600/2624 08012KT 7000 NSC TX36/2610Z
Forecast period: 0000 UTC 26 August 2019 to 0000 UTC 27 August 2019
Forecast type: FROM: standard forecast or significant change
Winds: from the E (80 degrees) at 14 MPH (12 knots; 6.2 m/s)
Visibility: 4 miles (7 km)
Ceiling: unknown
Clouds: missing
Weather: no significant weather forecast for this period

 AIRPORT MAP

 RUNWAY INFORMATION

 AIRPORT FREQUENCIES
Type APP Name TASHKENT A Frequency 125.2 MHZ
Type ATIS Name ATIS Frequency 126.8 MHZ
Type CLD Name TASHKENT D Frequency 129.4 MHZ
Type GCA Name TASHKENT K Frequency 119.4 MHZ
Type GND Name TASHKENT G Frequency 121.7 MHZ
Type TWR Name TASHKENT T Frequency 120.4 MHZ

 AIRPORT NEAR NAVIGATION AIDS
Type NDB Name Tashkent Frequency 285 KHZ
Type NDB Name Tashkent Frequency 285 KHZ
Type VOR-DME Name Tashkent Frequency 113200 KHZ
Type NDB Name Tashkent Frequency 340 KHZ



2018 Air Astana Virtual Airline